^^
Datos históricos de la estación: Murcia-Puente Tocinos
Diario Informe para Noviembre 1, 2019 Unidades:  Ambas    Ingés   Métrico
Diario Semanal Mensual Anual
  Máxima: Mínima: Promedio:
Temperatura: 82.2 °F /  27.9 °C 64.2 °F /  17.9 °C 73 °F /  22.8 °C
Punto de rocio: 61.3 °F /  16.3 °C 55.9 °F /  13.3 °C 57.7 °F /  14.3 °C
Humedad: 76% 42% 60%
Velocidad viento: 8.5mph /  13.7km/h - 4.5mph /  7.2km/h
Racha viento: 17.5mph /  28.2km/h - -
Viento- - SO
Presión: 30.1 in /  1020.1 hPa 29.9 in /  1013.7 hPa -
Precipitación: 0 in /  0.0 mm    
 
 
Tabla de datos para Noviembre 1, 2019
Hora Temperatura Punto de rocio Presión Viento Velocidad viento Racha viento Humedad Intensidad lluvia(por hora) Nubes
00:04 70 °F /  21.1 °C 56.1 °F /  13.4 °C 30.1in /  1020.1hPa SSO 3.5mph /  5.7km/h 5mph /  8km/h 61.4% 0in /  0.0mm
00:09 70 °F /  21.1 °C 55.9 °F /  13.3 °C 30.1in /  1020.1hPa SO 3.1mph /  5km/h 4.6mph /  7.4km/h 61% 0in /  0.0mm
00:14 70 °F /  21.1 °C 55.9 °F /  13.3 °C 30.1in /  1019.9hPa SO 2.5mph /  4.1km/h 6mph /  9.7km/h 61% 0in /  0.0mm
00:19 70 °F /  21.1 °C 55.9 °F /  13.3 °C 30.1in /  1019.9hPa SO 2.4mph /  3.9km/h 6.9mph /  11.1km/h 61% 0in /  0.0mm
00:24 69.8 °F /  21 °C 56.1 °F /  13.4 °C 30.1in /  1019.9hPa SO 3.9mph /  6.2km/h 7mph /  11.3km/h 62% 0in /  0.0mm
00:29 69.4 °F /  20.8 °C 55.9 °F /  13.3 °C 30.1in /  1019.7hPa SO 4.3mph /  6.9km/h 8.7mph /  14km/h 62.2% 0in /  0.0mm
00:34 69.4 °F /  20.8 °C 56.3 °F /  13.5 °C 30.1in /  1019.7hPa SSO 5mph /  8.1km/h 9.2mph /  14.8km/h 63% 0in /  0.0mm
00:39 69.4 °F /  20.8 °C 56.3 °F /  13.5 °C 30.1in /  1019.7hPa SSO 5.2mph /  8.4km/h 9mph /  14.5km/h 63% 0in /  0.0mm
00:44 69.3 °F /  20.7 °C 56.1 °F /  13.4 °C 30.1in /  1019.4hPa SO 5.3mph /  8.6km/h 8mph /  12.9km/h 63% 0in /  0.0mm
00:49 69.3 °F /  20.7 °C 56.1 °F /  13.4 °C 30.1in /  1019.4hPa OSO 5.4mph /  8.7km/h 6mph /  9.7km/h 63.2% 0in /  0.0mm
00:54 69.1 °F /  20.6 °C 56.3 °F /  13.5 °C 30.1in /  1019.4hPa ONO 3.1mph /  5km/h 4mph /  6.4km/h 64% 0in /  0.0mm
00:59 68.7 °F /  20.4 °C 56.1 °F /  13.4 °C 30.1in /  1019.4hPa NO 2.4mph /  3.9km/h 3.1mph /  5km/h 64.1% 0in /  0.0mm
01:04 68.5 °F /  20.3 °C 56.3 °F /  13.5 °C 30.1in /  1019.4hPa Sur 1.9mph /  3.1km/h 5.2mph /  8.4km/h 65.2% 0in /  0.0mm
01:09 68.2 °F /  20.1 °C 56.7 °F /  13.7 °C 30.1in /  1019.4hPa SSE 1.8mph /  2.9km/h 8.5mph /  13.7km/h 66.6% 0in /  0.0mm
01:14 67.6 °F /  19.8 °C 56.7 °F /  13.7 °C 30.1in /  1019.1hPa SSE 4mph /  6.5km/h 9mph /  14.5km/h 68.2% 0in /  0.0mm
01:19 67.3 °F /  19.6 °C 56.8 °F /  13.8 °C 30.1in /  1019.1hPa SSE 4.7mph /  7.6km/h 7.4mph /  11.9km/h 69.4% 0in /  0.0mm
01:24 66.9 °F /  19.4 °C 56.8 °F /  13.8 °C 30.1in /  1019.3hPa SSE 5.1mph /  8.2km/h 8.1mph /  13km/h 70.2% 0in /  0.0mm
01:29 66.7 °F /  19.3 °C 57 °F /  13.9 °C 30.1in /  1019.3hPa Sur 5.2mph /  8.4km/h 8.1mph /  13km/h 71% 0in /  0.0mm
01:34 66.6 °F /  19.2 °C 57 °F /  13.9 °C 30.1in /  1019.3hPa Sur 5.2mph /  8.4km/h 8.5mph /  13.7km/h 71% 0in /  0.0mm
01:39 66.7 °F /  19.3 °C 56.8 °F /  13.8 °C 30.1in /  1019.3hPa Sur 5.2mph /  8.4km/h 9mph /  14.5km/h 70.8% 0in /  0.0mm
01:44 66.7 °F /  19.3 °C 56.7 °F /  13.7 °C 30.1in /  1019.2hPa SSO 5.3mph /  8.6km/h 8.1mph /  13km/h 70% 0in /  0.0mm
01:49 66.9 °F /  19.4 °C 56.5 °F /  13.6 °C 30.1in /  1019.2hPa SSO 5.4mph /  8.7km/h 8mph /  12.9km/h 69.1% 0in /  0.0mm
01:54 67.1 °F /  19.5 °C 56.5 °F /  13.6 °C 30.1in /  1019.2hPa SSO 4.8mph /  7.8km/h 7mph /  11.3km/h 68.8% 0in /  0.0mm
01:59 67.3 °F /  19.6 °C 56.5 °F /  13.6 °C 30.1in /  1019.1hPa SSO 4.7mph /  7.6km/h 6mph /  9.7km/h 68% 0in /  0.0mm
02:04 67.3 °F /  19.6 °C 56.5 °F /  13.6 °C 30.1in /  1019.1hPa SSO 3.3mph /  5.3km/h 5mph /  8km/h 68% 0in /  0.0mm
02:09 67.3 °F /  19.6 °C 56.5 °F /  13.6 °C 30.1in /  1019.3hPa SSO 2.9mph /  4.7km/h 3mph /  4.8km/h 68% 0in /  0.0mm
02:14 67.3 °F /  19.6 °C 56.5 °F /  13.6 °C 30.1in /  1019.3hPa SSO 1.7mph /  2.8km/h 3mph /  4.8km/h 68.4% 0in /  0.0mm
02:19 66.9 °F /  19.4 °C 56.5 °F /  13.6 °C 30.1in /  1019.3hPa SSO 1.4mph /  2.2km/h 3mph /  4.8km/h 69% 0in /  0.0mm
02:24 66.7 °F /  19.3 °C 56.7 °F /  13.7 °C 30.1in /  1019.3hPa SSO 1.4mph /  2.2km/h 2.4mph /  3.9km/h 69.9% 0in /  0.0mm
02:29 66.6 °F /  19.2 °C 56.5 °F /  13.6 °C 30.1in /  1019.2hPa SSO 1.4mph /  2.2km/h 3.6mph /  5.8km/h 70% 0in /  0.0mm
02:34 66.6 °F /  19.2 °C 56.5 °F /  13.6 °C 30.1in /  1019.2hPa SSO 1.7mph /  2.7km/h 5.2mph /  8.4km/h 70% 0in /  0.0mm
02:39 66.6 °F /  19.2 °C 56.5 °F /  13.6 °C 30.1in /  1019.2hPa SSO 1.8mph /  2.9km/h 5mph /  8km/h 70% 0in /  0.0mm
02:44 66.6 °F /  19.2 °C 56.5 °F /  13.6 °C 30.1in /  1019.1hPa SSO 2.8mph /  4.5km/h 5mph /  8km/h 70% 0in /  0.0mm
02:49 66.6 °F /  19.2 °C 56.5 °F /  13.6 °C 30.1in /  1019.1hPa SSO 3.1mph /  5km/h 5mph /  8km/h 70% 0in /  0.0mm
02:54 66.6 °F /  19.2 °C 56.5 °F /  13.6 °C 30.1in /  1019.2hPa SSO 3.1mph /  5km/h 5.8mph /  9.3km/h 70% 0in /  0.0mm
02:59 66.6 °F /  19.2 °C 56.5 °F /  13.6 °C 30.1in /  1019.2hPa SSO 3.1mph /  5km/h 6mph /  9.7km/h 70% 0in /  0.0mm
03:04 66.7 °F /  19.3 °C 56.3 °F /  13.5 °C 30.1in /  1019.2hPa SO 4mph /  6.5km/h 6mph /  9.7km/h 69.2% 0in /  0.0mm
03:09 66.9 °F /  19.4 °C 56.3 °F /  13.5 °C 30.1in /  1019.2hPa SSO 4.3mph /  6.9km/h 6mph /  9.7km/h 69% 0in /  0.0mm
03:14 66.7 °F /  19.3 °C 56.3 °F /  13.5 °C 30.1in /  1019.1hPa SSO 4.1mph /  6.6km/h 6.2mph /  10km/h 69% 0in /  0.0mm
03:19 66.7 °F /  19.3 °C 56.1 °F /  13.4 °C 30.1in /  1019.1hPa SSO 4mph /  6.5km/h 6.9mph /  11.1km/h 69% 0in /  0.0mm
03:24 66.7 °F /  19.3 °C 56.1 °F /  13.4 °C 30.1in /  1019.1hPa SSO 4.2mph /  6.8km/h 7mph /  11.3km/h 69% 0in /  0.0mm
03:29 66.7 °F /  19.3 °C 56.1 °F /  13.4 °C 30.1in /  1019.0hPa SSO 4.3mph /  6.9km/h 7mph /  11.3km/h 69% 0in /  0.0mm
03:34 66.7 °F /  19.3 °C 56.1 °F /  13.4 °C 30.1in /  1019.0hPa SSO 4.6mph /  7.4km/h 7mph /  11.3km/h 69% 0in /  0.0mm
03:39 66.7 °F /  19.3 °C 56.1 °F /  13.4 °C 30.1in /  1019.0hPa SSO 4.7mph /  7.6km/h 7mph /  11.3km/h 69% 0in /  0.0mm
03:44 66.7 °F /  19.3 °C 56.1 °F /  13.4 °C 30.1in /  1018.6hPa OSO 3.9mph /  6.2km/h 5.2mph /  8.4km/h 69% 0in /  0.0mm
03:49 66.7 °F /  19.3 °C 56.1 °F /  13.4 °C 30.1in /  1018.6hPa Oeste 3.6mph /  5.8km/h 5mph /  8km/h 69% 0in /  0.0mm
03:54 66.6 °F /  19.2 °C 56.1 °F /  13.4 °C 30.1in /  1018.6hPa ONO 2.4mph /  3.8km/h 4mph /  6.4km/h 69.1% 0in /  0.0mm
03:59 66.6 °F /  19.2 °C 56.3 °F /  13.5 °C 30.1in /  1018.6hPa ONO 2mph /  3.2km/h 2.4mph /  3.9km/h 70% 0in /  0.0mm
04:04 66 °F /  18.9 °C 56.3 °F /  13.5 °C 30.1in /  1018.6hPa NNO 1.6mph /  2.5km/h 5.2mph /  8.4km/h 70.5% 0in /  0.0mm
04:09 65.7 °F /  18.7 °C 56.3 °F /  13.5 °C 30.1in /  1018.7hPa ESE 1.4mph /  2.2km/h 5mph /  8km/h 71.8% 0in /  0.0mm
04:14 65.1 °F /  18.4 °C 56.3 °F /  13.5 °C 30.1in /  1018.7hPa ESE 2.2mph /  3.5km/h 5mph /  8km/h 73.3% 0in /  0.0mm
04:19 64.8 °F /  18.2 °C 56.3 °F /  13.5 °C 30.1in /  1018.7hPa ESE 2.4mph /  3.9km/h 3.5mph /  5.6km/h 74% 0in /  0.0mm
04:24 64.6 °F /  18.1 °C 56.3 °F /  13.5 °C 30.1in /  1018.7hPa ESE 1.6mph /  2.6km/h 4.6mph /  7.4km/h 74.5% 0in /  0.0mm
04:29 64.6 °F /  18.1 °C 56.5 °F /  13.6 °C 30.1in /  1018.7hPa SE 1.4mph /  2.2km/h 5.2mph /  8.4km/h 75% 0in /  0.0mm
04:34 64.6 °F /  18.1 °C 56.5 °F /  13.6 °C 30.1in /  1018.7hPa NE 2.2mph /  3.5km/h 5mph /  8km/h 75% 0in /  0.0mm
04:39 64.2 °F /  17.9 °C 56.3 °F /  13.5 °C 30.1in /  1018.7hPa NE 2.4mph /  3.9km/h 5mph /  8km/h 75.5% 0in /  0.0mm
04:44 64.2 °F /  17.9 °C 56.5 °F /  13.6 °C 30.1in /  1018.7hPa NE 1.6mph /  2.6km/h 4.7mph /  7.6km/h 76% 0in /  0.0mm
04:49 64.4 °F /  18 °C 56.7 °F /  13.7 °C 30.1in /  1018.7hPa ONO 1.4mph /  2.2km/h 5.8mph /  9.3km/h 75.9% 0in /  0.0mm
04:54 64.2 °F /  17.9 °C 56.3 °F /  13.5 °C 30.1in /  1018.7hPa NO 2.5mph /  4.1km/h 6mph /  9.7km/h 75.7% 0in /  0.0mm
04:59 64.2 °F /  17.9 °C 56.5 °F /  13.6 °C 30.1in /  1018.7hPa ONO 2.9mph /  4.7km/h 3.6mph /  5.8km/h 76% 0in /  0.0mm
05:04 64.2 °F /  17.9 °C 56.5 °F /  13.6 °C 30.1in /  1018.7hPa Oeste 2.2mph /  3.5km/h 4mph /  6.4km/h 76% 0in /  0.0mm
05:09 64.4 °F /  18 °C 56.7 °F /  13.7 °C 30.1in /  1018.7hPa OSO 2mph /  3.2km/h 4.6mph /  7.4km/h 76% 0in /  0.0mm
05:14 64.8 °F /  18.2 °C 56.5 °F /  13.6 °C 30.1in /  1018.7hPa SO 2mph /  3.2km/h 5.2mph /  8.4km/h 75% 0in /  0.0mm
05:19 64.9 °F /  18.3 °C 56.5 °F /  13.6 °C 30.1in /  1018.7hPa SO 2mph /  3.2km/h 5.2mph /  8.4km/h 74% 0in /  0.0mm
05:24 65.1 °F /  18.4 °C 56.3 °F /  13.5 °C 30.1in /  1018.7hPa SO 2.9mph /  4.6km/h 5.8mph /  9.3km/h 73.1% 0in /  0.0mm
05:29 65.3 °F /  18.5 °C 56.5 °F /  13.6 °C 30.1in /  1018.7hPa SO 3.1mph /  5km/h 6mph /  9.7km/h 73% 0in /  0.0mm
05:34 65.3 °F /  18.5 °C 56.5 °F /  13.6 °C 30.1in /  1018.7hPa SO 3.1mph /  5km/h 6mph /  9.7km/h 73% 0in /  0.0mm
05:39 65.3 °F /  18.5 °C 56.5 °F /  13.6 °C 30.1in /  1018.7hPa OSO 3.1mph /  5km/h 6mph /  9.7km/h 73% 0in /  0.0mm
05:44 65.3 °F /  18.5 °C 56.3 °F /  13.5 °C 30.1in /  1018.6hPa Oeste 3.1mph /  5km/h 5mph /  8km/h 73% 0in /  0.0mm
05:49 65.1 °F /  18.4 °C 56.1 °F /  13.4 °C 30.1in /  1018.6hPa Oeste 3.1mph /  5km/h 3mph /  4.8km/h 73% 0in /  0.0mm
05:54 65.1 °F /  18.4 °C 56.1 °F /  13.4 °C 30.1in /  1018.8hPa Oeste 2.1mph /  3.4km/h 3mph /  4.8km/h 73% 0in /  0.0mm
05:59 65.1 °F /  18.4 °C 56.1 °F /  13.4 °C 30.1in /  1018.8hPa Oeste 1.8mph /  2.9km/h 3.1mph /  5km/h 73% 0in /  0.0mm
06:04 65.1 °F /  18.4 °C 56.1 °F /  13.4 °C 30.1in /  1018.8hPa Oeste 0.4mph /  0.6km/h 4.6mph /  7.4km/h 73% 0in /  0.0mm
06:09 65.1 °F /  18.4 °C 56.1 °F /  13.4 °C 30.1in /  1018.8hPa Calm   5mph /  8km/h 73% 0in /  0.0mm
06:14 65.3 °F /  18.5 °C 56.3 °F /  13.5 °C 30.1in /  1018.7hPa SO 2.4mph /  3.8km/h 5mph /  8km/h 72.5% 0in /  0.0mm
06:19 65.7 °F /  18.7 °C 56.3 °F /  13.5 °C 30.1in /  1018.7hPa OSO 3.1mph /  5km/h 5mph /  8km/h 72% 0in /  0.0mm
06:24 65.7 °F /  18.7 °C 56.1 °F /  13.4 °C 30.1in /  1018.7hPa SO 2.9mph /  4.7km/h 5.8mph /  9.3km/h 71.3% 0in /  0.0mm
06:29 65.8 °F /  18.8 °C 56.3 °F /  13.5 °C 30.1in /  1018.7hPa SO 2.9mph /  4.7km/h 6mph /  9.7km/h 71% 0in /  0.0mm
06:34 66 °F /  18.9 °C 56.1 °F /  13.4 °C 30.1in /  1018.7hPa OSO 3mph /  4.9km/h 5.9mph /  9.5km/h 70.4% 0in /  0.0mm
06:39 66.4 °F /  19.1 °C 56.3 °F /  13.5 °C 30.1in /  1018.7hPa OSO 3.1mph /  5km/h 6mph /  9.7km/h 70% 0in /  0.0mm
06:44 66.4 °F /  19.1 °C 55.9 °F /  13.3 °C 30.1in /  1018.6hPa OSO 3.1mph /  5km/h 5.2mph /  8.4km/h 69.2% 0in /  0.0mm
06:49 66.6 °F /  19.2 °C 56.1 °F /  13.4 °C 30.1in /  1018.6hPa OSO 3.1mph /  5km/h 6.2mph /  10km/h 69% 0in /  0.0mm
06:54 66.6 °F /  19.2 °C 56.1 °F /  13.4 °C 30.1in /  1018.6hPa OSO 3.1mph /  5km/h 6.2mph /  10km/h 69% 0in /  0.0mm
06:59 66.7 °F /  19.3 °C 56.1 °F /  13.4 °C 30.1in /  1018.6hPa SO 3.1mph /  5km/h 6mph /  9.7km/h 69% 0in /  0.0mm
07:04 66.7 °F /  19.3 °C 56.1 °F /  13.4 °C 30.1in /  1018.6hPa Sur 3.5mph /  5.6km/h 5.2mph /  8.4km/h 69% 0in /  0.0mm
07:09 66.6 °F /  19.2 °C 56.1 °F /  13.4 °C 30.1in /  1018.6hPa Sur 3.6mph /  5.8km/h 5.2mph /  8.4km/h 69.3% 0in /  0.0mm
07:14 66 °F /  18.9 °C 56.1 °F /  13.4 °C 30.1in /  1018.5hPa SSO 3.6mph /  5.8km/h 5.8mph /  9.3km/h 70.5% 0in /  0.0mm
07:19 65.7 °F /  18.7 °C 56.3 °F /  13.5 °C 30.1in /  1018.5hPa OSO 3.6mph /  5.8km/h 6mph /  9.7km/h 71.3% 0in /  0.0mm
07:24 65.7 °F /  18.7 °C 56.5 °F /  13.6 °C 30.1in /  1018.5hPa SSO 3.6mph /  5.8km/h 7.4mph /  11.9km/h 72% 0in /  0.0mm
07:29 65.7 °F /  18.7 °C 56.3 °F /  13.5 °C 30.1in /  1018.4hPa SO 3.6mph /  5.8km/h 7.4mph /  11.9km/h 71.8% 0in /  0.0mm
07:34 65.7 °F /  18.7 °C 56.1 °F /  13.4 °C 30.1in /  1018.4hPa SO 4.2mph /  6.7km/h 7mph /  11.3km/h 71.4% 0in /  0.0mm
07:39 65.7 °F /  18.7 °C 56.3 °F /  13.5 °C 30.1in /  1018.5hPa SO 4.3mph /  6.9km/h 6.9mph /  11.1km/h 71.8% 0in /  0.0mm
07:44 65.7 °F /  18.7 °C 56.1 °F /  13.4 °C 30.1in /  1018.5hPa OSO 4.1mph /  6.6km/h 7mph /  11.3km/h 71% 0in /  0.0mm
07:49 65.8 °F /  18.8 °C 56.1 °F /  13.4 °C 30.1in /  1018.5hPa OSO 4mph /  6.5km/h 6mph /  9.7km/h 71% 0in /  0.0mm
07:54 66 °F /  18.9 °C 56.3 °F /  13.5 °C 30.1in /  1018.5hPa SO 4mph /  6.5km/h 6.2mph /  10km/h 71% 0in /  0.0mm
07:59 66 °F /  18.9 °C 56.3 °F /  13.5 °C 30.1in /  1018.2hPa SO 4mph /  6.5km/h 6mph /  9.7km/h 71% 0in /  0.0mm
08:04 66.2 °F /  19 °C 56.3 °F /  13.5 °C 30.1in /  1018.2hPa SO 4mph /  6.5km/h 9.2mph /  14.8km/h 70.4% 0in /  0.0mm
08:09 66.6 °F /  19.2 °C 56.5 °F /  13.6 °C 30.1in /  1018.4hPa SO 4mph /  6.5km/h 9mph /  14.5km/h 70% 0in /  0.0mm
08:14 66.6 °F /  19.2 °C 56.3 °F /  13.5 °C 30.1in /  1018.4hPa SO 4.5mph /  7.3km/h 7mph /  11.3km/h 69.7% 0in /  0.0mm
08:19 66.6 °F /  19.2 °C 56.5 °F /  13.6 °C 30.1in /  1018.4hPa SO 4.7mph /  7.6km/h 5mph /  8km/h 69.9% 0in /  0.0mm
08:24 66.7 °F /  19.3 °C 56.5 °F /  13.6 °C 30.1in /  1018.4hPa SO 2.7mph /  4.3km/h 3mph /  4.8km/h 70% 0in /  0.0mm
08:29 66.6 °F /  19.2 °C 56.5 °F /  13.6 °C 30.1in /  1018.4hPa OSO 2mph /  3.2km/h 3.5mph /  5.6km/h 70% 0in /  0.0mm
08:34 66.6 °F /  19.2 °C 56.7 °F /  13.7 °C 30.1in /  1018.4hPa SSO 1.6mph /  2.5km/h 4.6mph /  7.4km/h 70.5% 0in /  0.0mm
08:39 66.2 °F /  19 °C 56.5 °F /  13.6 °C 30.1in /  1018.4hPa SSE 1.4mph /  2.2km/h 5.8mph /  9.3km/h 71% 0in /  0.0mm
08:44 66 °F /  18.9 °C 56.3 °F /  13.5 °C 30.1in /  1018.3hPa SSE 3.1mph /  5km/h 6mph /  9.7km/h 71.2% 0in /  0.0mm
08:49 66 °F /  18.9 °C 56.7 °F /  13.7 °C 30.1in /  1018.3hPa SSE 3.6mph /  5.8km/h 5mph /  8km/h 71.8% 0in /  0.0mm
08:54 66 °F /  18.9 °C 56.7 °F /  13.7 °C 30.1in /  1018.6hPa SE 2.4mph /  3.8km/h 5.9mph /  9.5km/h 72% 0in /  0.0mm
08:59 65.8 °F /  18.8 °C 56.7 °F /  13.7 °C 30.1in /  1018.6hPa SE 2mph /  3.2km/h 6.9mph /  11.1km/h 72% 0in /  0.0mm
09:04 65.8 °F /  18.8 °C 56.7 °F /  13.7 °C 30.1in /  1018.6hPa SSE 3.3mph /  5.3km/h 7mph /  11.3km/h 72% 0in /  0.0mm
09:09 65.8 °F /  18.8 °C 56.7 °F /  13.7 °C 30.1in /  1018.8hPa SSE 3.6mph /  5.8km/h 7mph /  11.3km/h 72% 0in /  0.0mm
09:14 66 °F /  18.9 °C 56.7 °F /  13.7 °C 30.1in /  1018.8hPa Sur 4.4mph /  7.1km/h 7.4mph /  11.9km/h 72% 0in /  0.0mm
09:19 66.2 °F /  19 °C 56.8 °F /  13.8 °C 30.1in /  1018.8hPa Sur 4.7mph /  7.6km/h 7mph /  11.3km/h 72% 0in /  0.0mm
09:24 66.9 °F /  19.4 °C 57.2 °F /  14 °C 30.1in /  1018.8hPa Sur 4.4mph /  7.1km/h 6.4mph /  10.3km/h 71.2% 0in /  0.0mm
09:29 67.6 °F /  19.8 °C 57.4 °F /  14.1 °C 30.1in /  1018.8hPa Sur 4.3mph /  6.9km/h 8.1mph /  13km/h 69.6% 0in /  0.0mm
09:34 68.5 °F /  20.3 °C 57.6 °F /  14.2 °C 30.1in /  1018.8hPa Sur 4.6mph /  7.4km/h 8.1mph /  13km/h 67.7% 0in /  0.0mm
09:39 69.4 °F /  20.8 °C 57.4 °F /  14.1 °C 30.1in /  1018.8hPa Sur 4.7mph /  7.6km/h 8.5mph /  13.7km/h 65.5% 0in /  0.0mm
09:44 70.2 °F /  21.2 °C 57.7 °F /  14.3 °C 30.1in /  1018.8hPa Sur 5.6mph /  9km/h 9mph /  14.5km/h 64.7% 0in /  0.0mm
09:49 70.3 °F /  21.3 °C 57.7 °F /  14.3 °C 30.1in /  1018.8hPa Sur 5.9mph /  9.5km/h 8mph /  12.9km/h 64.3% 0in /  0.0mm
09:54 70.7 °F /  21.5 °C 58.1 °F /  14.5 °C 30.1in /  1018.9hPa SSE 5mph /  8km/h 7mph /  11.3km/h 64.3% 0in /  0.0mm
09:59 71.2 °F /  21.8 °C 58.1 °F /  14.5 °C 30.1in /  1018.9hPa SSE 4.7mph /  7.6km/h 8.1mph /  13km/h 63.1% 0in /  0.0mm
10:04 71.8 °F /  22.1 °C 58.3 °F /  14.6 °C 30.1in /  1018.9hPa SE 5.1mph /  8.2km/h 8mph /  12.9km/h 62.5% 0in /  0.0mm
10:09 72.1 °F /  22.3 °C 58.5 °F /  14.7 °C 30.1in /  1018.9hPa Sur 5.2mph /  8.4km/h 6.2mph /  10km/h 61.9% 0in /  0.0mm
10:14 72.7 °F /  22.6 °C 58.3 °F /  14.6 °C 30.1in /  1018.9hPa Sur 4mph /  6.4km/h 7.4mph /  11.9km/h 60.9% 0in /  0.0mm
10:19 72.9 °F /  22.7 °C 58.1 °F /  14.5 °C 30.1in /  1018.9hPa Sur 3.6mph /  5.8km/h 7mph /  11.3km/h 60% 0in /  0.0mm
10:24 73 °F /  22.8 °C 58.3 °F /  14.6 °C 30.1in /  1018.9hPa SSO 3.9mph /  6.3km/h 6mph /  9.7km/h 59.7% 0in /  0.0mm
10:29 73.4 °F /  23 °C 58.3 °F /  14.6 °C 30.1in /  1018.8hPa SO 4mph /  6.5km/h 6mph /  9.7km/h 59.1% 0in /  0.0mm
10:34 73.8 °F /  23.2 °C 58.5 °F /  14.7 °C 30.1in /  1018.8hPa SO 3.3mph /  5.3km/h 5.9mph /  9.5km/h 59% 0in /  0.0mm
10:39 73.9 °F /  23.3 °C 58.3 °F /  14.6 °C 30.1in /  1018.8hPa OSO 3.1mph /  5km/h 6mph /  9.7km/h 58.2% 0in /  0.0mm
10:44 74.3 °F /  23.5 °C 58.5 °F /  14.7 °C 30.1in /  1018.6hPa Oeste 3.1mph /  5km/h 7.4mph /  11.9km/h 58% 0in /  0.0mm
10:49 74.5 °F /  23.6 °C 58.6 °F /  14.8 °C 30.1in /  1018.6hPa OSO 3.1mph /  5km/h 7mph /  11.3km/h 57.9% 0in /  0.0mm
10:54 74.7 °F /  23.7 °C 58.6 °F /  14.8 °C 30.1in /  1018.6hPa OSO 3.8mph /  6.1km/h 8.5mph /  13.7km/h 57.3% 0in /  0.0mm
10:59 75 °F /  23.9 °C 58.8 °F /  14.9 °C 30.1in /  1018.5hPa OSO 4mph /  6.5km/h 9mph /  14.5km/h 57% 0in /  0.0mm
11:04 75.4 °F /  24.1 °C 58.6 °F /  14.8 °C 30.1in /  1018.5hPa OSO 4.6mph /  7.4km/h 8.1mph /  13km/h 56% 0in /  0.0mm
11:09 75.6 °F /  24.2 °C 58.6 °F /  14.8 °C 30.1in /  1018.5hPa OSO 4.7mph /  7.6km/h 10mph /  16.1km/h 55.8% 0in /  0.0mm
11:14 75.7 °F /  24.3 °C 58.5 °F /  14.7 °C 30.1in /  1018.4hPa OSO 5.7mph /  9.1km/h 10.4mph /  16.7km/h 55% 0in /  0.0mm
11:19 76.1 °F /  24.5 °C 58.6 °F /  14.8 °C 30.1in /  1018.4hPa SO 5.9mph /  9.5km/h 10.4mph /  16.7km/h 54.9% 0in /  0.0mm
11:24 76.5 °F /  24.7 °C 59 °F /  15 °C 30.1in /  1018.4hPa SO 5.5mph /  8.9km/h 10mph /  16.1km/h 55% 0in /  0.0mm
11:29 76.6 °F /  24.8 °C 59.2 °F /  15.1 °C 30.1in /  1018.2hPa OSO 5.4mph /  8.7km/h 9.7mph /  15.6km/h 54.7% 0in /  0.0mm
11:34 76.8 °F /  24.9 °C 59.4 °F /  15.2 °C 30.1in /  1018.2hPa OSO 5.4mph /  8.7km/h 10.7mph /  17.2km/h 55% 0in /  0.0mm
11:39 77 °F /  25 °C 59.5 °F /  15.3 °C 30.1in /  1018.2hPa ONO 5.4mph /  8.7km/h 15.6mph /  25.1km/h 54.7% 0in /  0.0mm
11:44 77.5 °F /  25.3 °C 59.5 °F /  15.3 °C 30.1in /  1017.9hPa Oeste 7.5mph /  12.1km/h 16.1mph /  25.9km/h 54% 0in /  0.0mm
11:49 77.5 °F /  25.3 °C 59.7 °F /  15.4 °C 30.1in /  1017.9hPa Oeste 8.1mph /  13km/h 16mph /  25.7km/h 54% 0in /  0.0mm
11:54 78.1 °F /  25.6 °C 60.1 °F /  15.6 °C 30.1in /  1017.9hPa ONO 7.7mph /  12.4km/h 12mph /  19.3km/h 54% 0in /  0.0mm
11:59 78.3 °F /  25.7 °C 59.9 °F /  15.5 °C 30.1in /  1017.9hPa OSO 7.6mph /  12.2km/h 15mph /  24.1km/h 53.2% 0in /  0.0mm
12:04 78.4 °F /  25.8 °C 59.7 °F /  15.4 °C 30.1in /  1017.9hPa Oeste 7mph /  11.3km/h 15mph /  24.1km/h 52.7% 0in /  0.0mm
12:09 78.4 °F /  25.8 °C 59.5 °F /  15.3 °C 30.1in /  1017.9hPa Oeste 6.9mph /  11.1km/h 15mph /  24.1km/h 52.1% 0in /  0.0mm
12:14 78.6 °F /  25.9 °C 59.9 °F /  15.5 °C 30.1in /  1017.8hPa OSO 7.8mph /  12.6km/h 15mph /  24.1km/h 52.8% 0in /  0.0mm
12:19 79 °F /  26.1 °C 59.9 °F /  15.5 °C 30.1in /  1017.8hPa OSO 8.1mph /  13km/h 8.1mph /  13km/h 52.1% 0in /  0.0mm
12:24 79.3 °F /  26.3 °C 59.7 °F /  15.4 °C 30.1in /  1017.8hPa Oeste 4.9mph /  7.9km/h 8.5mph /  13.7km/h 51.2% 0in /  0.0mm
12:29 79.7 °F /  26.5 °C 59.9 °F /  15.5 °C 30in /  1017.4hPa ONO 4mph /  6.5km/h 11.8mph /  19km/h 50.8% 0in /  0.0mm
12:34 80.1 °F /  26.7 °C 59.5 °F /  15.3 °C 30in /  1017.4hPa ONO 5.1mph /  8.2km/h 13.5mph /  21.7km/h 49.9% 0in /  0.0mm
12:39 80.1 °F /  26.7 °C 59.9 °F /  15.5 °C 30in /  1017.4hPa NO 5.4mph /  8.7km/h 14mph /  22.5km/h 50.3% 0in /  0.0mm
12:44 80.2 °F /  26.8 °C 59.9 °F /  15.5 °C 30in /  1017.1hPa NO 6.2mph /  10km/h 14mph /  22.5km/h 50% 0in /  0.0mm
12:49 80.1 °F /  26.7 °C 59.7 °F /  15.4 °C 30in /  1017.1hPa NO 6.4mph /  10.3km/h 14mph /  22.5km/h 50% 0in /  0.0mm
12:54 80.1 °F /  26.7 °C 59.7 °F /  15.4 °C 30in /  1017.1hPa ONO 7.2mph /  11.6km/h 12.3mph /  19.8km/h 50% 0in /  0.0mm
12:59 79.9 °F /  26.6 °C 59.4 °F /  15.2 °C 30in /  1016.8hPa ONO 7.4mph /  11.9km/h 13mph /  20.9km/h 49.4% 0in /  0.0mm
13:04 80.1 °F /  26.7 °C 59.2 °F /  15.1 °C 30in /  1016.8hPa Oeste 7mph /  11.3km/h 13mph /  20.9km/h 49% 0in /  0.0mm
13:09 80.2 °F /  26.8 °C 59 °F /  15 °C 30in /  1016.8hPa Oeste 6.9mph /  11.1km/h 12mph /  19.3km/h 48.4% 0in /  0.0mm
13:14 80.4 °F /  26.9 °C 59.2 °F /  15.1 °C 30in /  1016.4hPa ONO 6.9mph /  11.1km/h 16.1mph /  25.9km/h 48.4% 0in /  0.0mm
13:19 80.8 °F /  27.1 °C 59.4 °F /  15.2 °C 30in /  1016.4hPa NO 6.9mph /  11.1km/h 16mph /  25.7km/h 48.1% 0in /  0.0mm
13:24 81 °F /  27.2 °C 59 °F /  15 °C 30in /  1016.4hPa ONO 6.5mph /  10.5km/h 13mph /  20.9km/h 47.4% 0in /  0.0mm
13:29 81.1 °F /  27.3 °C 58.8 °F /  14.9 °C 30in /  1016.2hPa ONO 6.4mph /  10.3km/h 13.8mph /  22.2km/h 46.8% 0in /  0.0mm
13:34 81.1 °F /  27.3 °C 58.5 °F /  14.7 °C 30in /  1016.2hPa Oeste 7.1mph /  11.5km/h 14mph /  22.5km/h 46.2% 0in /  0.0mm
13:39 81.3 °F /  27.4 °C 59 °F /  15 °C 30in /  1016.2hPa ONO 7.4mph /  11.9km/h 14mph /  22.5km/h 46.7% 0in /  0.0mm
13:44 81.3 °F /  27.4 °C 58.6 °F /  14.8 °C 30in /  1016.0hPa Oeste 7mph /  11.3km/h 14mph /  22.5km/h 46.1% 0in /  0.0mm
13:49 81.1 °F /  27.3 °C 58.5 °F /  14.7 °C 30in /  1016.0hPa Oeste 6.9mph /  11.1km/h 12.7mph /  20.4km/h 46% 0in /  0.0mm
13:54 81.1 °F /  27.3 °C 58.5 °F /  14.7 °C 30in /  1016.0hPa Oeste 6.9mph /  11.1km/h 13mph /  20.9km/h 46.2% 0in /  0.0mm
13:59 81 °F /  27.2 °C 58.3 °F /  14.6 °C 30in /  1015.6hPa ONO 6.9mph /  11.1km/h 7mph /  11.3km/h 46% 0in /  0.0mm
14:04 81 °F /  27.2 °C 58.1 °F /  14.5 °C 30in /  1015.6hPa Oeste 4.3mph /  6.9km/h 9.7mph /  15.6km/h 45.8% 0in /  0.0mm
14:09 81 °F /  27.2 °C 57.9 °F /  14.4 °C 30in /  1015.6hPa OSO 3.6mph /  5.8km/h 10mph /  16.1km/h 45.5% 0in /  0.0mm
14:14 81.3 °F /  27.4 °C 58.1 °F /  14.5 °C 30in /  1015.4hPa Oeste 5.3mph /  8.6km/h 13mph /  20.9km/h 45.2% 0in /  0.0mm
14:19 81.7 °F /  27.6 °C 58.3 °F /  14.6 °C 30in /  1015.4hPa Oeste 5.9mph /  9.5km/h 13mph /  20.9km/h 45.1% 0in /  0.0mm
14:24 81.9 °F /  27.7 °C 57.9 °F /  14.4 °C 30in /  1015.4hPa Oeste 6.3mph /  10.1km/h 13mph /  20.9km/h 44.2% 0in /  0.0mm
14:29 81.9 °F /  27.7 °C 57.9 °F /  14.4 °C 30in /  1015.1hPa Oeste 6.4mph /  10.3km/h 12.5mph /  20.1km/h 44.1% 0in /  0.0mm
14:34 82 °F /  27.8 °C 57.9 °F /  14.4 °C 30in /  1015.1hPa Oeste 6.4mph /  10.3km/h 16.1mph /  25.9km/h 44% 0in /  0.0mm
14:39 82 °F /  27.8 °C 57.9 °F /  14.4 °C 30in /  1015.1hPa OSO 6.4mph /  10.3km/h 16.1mph /  25.9km/h 44% 0in /  0.0mm
14:44 82 °F /  27.8 °C 57.7 °F /  14.3 °C 30in /  1014.9hPa OSO 7.3mph /  11.8km/h 15mph /  24.1km/h 43.6% 0in /  0.0mm
14:49 82 °F /  27.8 °C 57.2 °F /  14 °C 30in /  1014.9hPa Oeste 7.6mph /  12.2km/h 16.1mph /  25.9km/h 42.8% 0in /  0.0mm
14:54 82 °F /  27.8 °C 57 °F /  13.9 °C 30in /  1014.9hPa Oeste 8mph /  12.9km/h 16mph /  25.7km/h 42.4% 0in /  0.0mm
14:59 82 °F /  27.8 °C 57.4 °F /  14.1 °C 30in /  1014.9hPa OSO 8.1mph /  13km/h 14mph /  22.5km/h 42.9% 0in /  0.0mm
15:04 82.2 °F /  27.9 °C 57.4 °F /  14.1 °C 30in /  1014.9hPa Oeste 6.7mph /  10.8km/h 17.5mph /  28.2km/h 42.8% 0in /  0.0mm
15:09 82 °F /  27.8 °C 56.8 °F /  13.8 °C 30in /  1014.9hPa Oeste 6.4mph /  10.3km/h 17.3mph /  27.8km/h 42% 0in /  0.0mm
15:14 82 °F /  27.8 °C 56.8 °F /  13.8 °C 30in /  1014.8hPa Oeste 8mph /  12.9km/h 17mph /  27.4km/h 42.3% 0in /  0.0mm
15:19 82 °F /  27.8 °C 57.4 °F /  14.1 °C 30in /  1014.8hPa Oeste 8.5mph /  13.7km/h 14.7mph /  23.7km/h 43% 0in /  0.0mm
15:24 81.9 °F /  27.7 °C 56.7 °F /  13.7 °C 30in /  1014.8hPa Oeste 7.3mph /  11.7km/h 15mph /  24.1km/h 42.2% 0in /  0.0mm
15:29 81.9 °F /  27.7 °C 57 °F /  13.9 °C 30in /  1014.8hPa OSO 6.9mph /  11.1km/h 15mph /  24.1km/h 42.7% 0in /  0.0mm
15:34 81.7 °F /  27.6 °C 57 °F /  13.9 °C 30in /  1014.8hPa OSO 7.8mph /  12.6km/h 15mph /  24.1km/h 43% 0in /  0.0mm
15:39 81.7 °F /  27.6 °C 57 °F /  13.9 °C 30in /  1014.8hPa OSO 8.1mph /  13km/h 13mph /  20.9km/h 43% 0in /  0.0mm
15:44 81.7 °F /  27.6 °C 57.2 °F /  14 °C 30in /  1014.7hPa OSO 6.4mph /  10.3km/h 13mph /  20.9km/h 43.3% 0in /  0.0mm
15:49 81.7 °F /  27.6 °C 57.6 °F /  14.2 °C 30in /  1014.7hPa SO 5.9mph /  9.5km/h 13mph /  20.9km/h 43.8% 0in /  0.0mm
15:54 81.7 °F /  27.6 °C 57 °F /  13.9 °C 30in /  1014.8hPa OSO 7.1mph /  11.4km/h 15mph /  24.1km/h 43% 0in /  0.0mm
15:59 81.5 °F /  27.5 °C 56.8 °F /  13.8 °C 30in /  1014.8hPa OSO 7.4mph /  11.9km/h 15mph /  24.1km/h 43% 0in /  0.0mm
16:04 81.5 °F /  27.5 °C 56.8 °F /  13.8 °C 30in /  1014.8hPa SO 8.3mph /  13.3km/h 14mph /  22.5km/h 43% 0in /  0.0mm
16:09 81.5 °F /  27.5 °C 56.8 °F /  13.8 °C 30in /  1014.8hPa OSO 8.5mph /  13.7km/h 15mph /  24.1km/h 43% 0in /  0.0mm
16:14 81.5 °F /  27.5 °C 57.4 °F /  14.1 °C 30in /  1014.6hPa OSO 7.6mph /  12.3km/h 15mph /  24.1km/h 43.9% 0in /  0.0mm
16:19 81.7 °F /  27.6 °C 57.6 °F /  14.2 °C 30in /  1014.6hPa OSO 7.4mph /  11.9km/h 11mph /  17.7km/h 44% 0in /  0.0mm
16:24 81.9 °F /  27.7 °C 57.6 °F /  14.2 °C 30in /  1014.6hPa OSO 5mph /  8.1km/h 11.5mph /  18.5km/h 43.7% 0in /  0.0mm
16:29 81.9 °F /  27.7 °C 57.6 °F /  14.2 °C 30in /  1014.6hPa OSO 4.3mph /  6.9km/h 12mph /  19.3km/h 43.5% 0in /  0.0mm
16:34 81.9 °F /  27.7 °C 57.2 °F /  14 °C 30in /  1014.6hPa OSO 6.3mph /  10.1km/h 14mph /  22.5km/h 43.1% 0in /  0.0mm
16:39 82 °F /  27.8 °C 57.2 °F /  14 °C 30in /  1014.6hPa OSO 6.9mph /  11.1km/h 14mph /  22.5km/h 43% 0in /  0.0mm
16:44 82 °F /  27.8 °C 57.6 °F /  14.2 °C 30in /  1014.5hPa OSO 6.3mph /  10.2km/h 11mph /  17.7km/h 43.4% 0in /  0.0mm
16:49 82 °F /  27.8 °C 57.7 °F /  14.3 °C 30in /  1014.5hPa OSO 6.2mph /  10km/h 11.5mph /  18.5km/h 43.6% 0in /  0.0mm
16:54 81.9 °F /  27.7 °C 57.2 °F /  14 °C 30in /  1014.5hPa OSO 6mph /  9.6km/h 12mph /  19.3km/h 43% 0in /  0.0mm
16:59 81.9 °F /  27.7 °C 57.2 °F /  14 °C 30in /  1014.5hPa OSO 5.9mph /  9.5km/h 12mph /  19.3km/h 43% 0in /  0.0mm
17:04 81.9 °F /  27.7 °C 57.4 °F /  14.1 °C 30in /  1014.5hPa OSO 6.7mph /  10.8km/h 11.5mph /  18.5km/h 43.4% 0in /  0.0mm
17:09 81.7 °F /  27.6 °C 57.4 °F /  14.1 °C 30in /  1014.5hPa Oeste 6.9mph /  11.1km/h 12mph /  19.3km/h 43.8% 0in /  0.0mm
17:14 81.3 °F /  27.4 °C 57.4 °F /  14.1 °C 30in /  1014.4hPa Oeste 6.2mph /  9.9km/h 12.7mph /  20.4km/h 44% 0in /  0.0mm
17:19 81.3 °F /  27.4 °C 57.2 °F /  14 °C 30in /  1014.4hPa Oeste 5.9mph /  9.5km/h 13mph /  20.9km/h 43.9% 0in /  0.0mm
17:24 81.1 °F /  27.3 °C 57.2 °F /  14 °C 30in /  1014.4hPa Oeste 6.3mph /  10.1km/h 13mph /  20.9km/h 44% 0in /  0.0mm
17:29 81.1 °F /  27.3 °C 57.2 °F /  14 °C 30in /  1014.3hPa Oeste 6.4mph /  10.3km/h 13mph /  20.9km/h 44% 0in /  0.0mm
17:34 81 °F /  27.2 °C 56.7 °F /  13.7 °C 30in /  1014.3hPa ONO 6mph /  9.7km/h 13mph /  20.9km/h 43.2% 0in /  0.0mm
17:39 81 °F /  27.2 °C 56.8 °F /  13.8 °C 30in /  1014.3hPa Oeste 5.9mph /  9.5km/h 13mph /  20.9km/h 43.9% 0in /  0.0mm
17:44 80.8 °F /  27.1 °C 56.7 °F /  13.7 °C 30in /  1014.3hPa Oeste 7.1mph /  11.4km/h 12.7mph /  20.4km/h 43.9% 0in /  0.0mm
17:49 80.4 °F /  26.9 °C 56.5 °F /  13.6 °C 30in /  1014.3hPa Oeste 7.4mph /  11.9km/h 16.1mph /  25.9km/h 43.8% 0in /  0.0mm
17:54 80.2 °F /  26.8 °C 56.5 °F /  13.6 °C 30in /  1014.4hPa Oeste 8.3mph /  13.3km/h 16mph /  25.7km/h 44% 0in /  0.0mm
17:59 80.1 °F /  26.7 °C 56.3 °F /  13.5 °C 30in /  1014.4hPa Oeste 8.5mph /  13.7km/h 15mph /  24.1km/h 44% 0in /  0.0mm
18:04 80.1 °F /  26.7 °C 56.3 °F /  13.5 °C 30in /  1014.4hPa Oeste 6.8mph /  11km/h 13mph /  20.9km/h 44.3% 0in /  0.0mm
18:09 79.7 °F /  26.5 °C 56.5 °F /  13.6 °C 30in /  1014.5hPa OSO 6.4mph /  10.3km/h 9.2mph /  14.8km/h 45% 0in /  0.0mm
18:14 79.5 °F /  26.4 °C 56.3 °F /  13.5 °C 30in /  1014.5hPa OSO 5.1mph /  8.2km/h 9.2mph /  14.8km/h 45.2% 0in /  0.0mm
18:19 79.3 °F /  26.3 °C 56.8 °F /  13.8 °C 30in /  1014.5hPa Oeste 4.7mph /  7.6km/h 8.1mph /  13km/h 46% 0in /  0.0mm
18:24 79.2 °F /  26.2 °C 56.7 °F /  13.7 °C 30in /  1014.5hPa Oeste 4.4mph /  7.1km/h 12.7mph /  20.4km/h 46% 0in /  0.0mm
18:29 79.2 °F /  26.2 °C 56.7 °F /  13.7 °C 30in /  1014.5hPa Oeste 4.3mph /  6.9km/h 13mph /  20.9km/h 46% 0in /  0.0mm
18:34 79 °F /  26.1 °C 56.5 °F /  13.6 °C 30in /  1014.5hPa Oeste 6.3mph /  10.2km/h 13.8mph /  22.2km/h 46% 0in /  0.0mm
18:39 79 °F /  26.1 °C 56.5 °F /  13.6 °C 30in /  1014.7hPa Oeste 6.9mph /  11.1km/h 14mph /  22.5km/h 46% 0in /  0.0mm
18:44 79 °F /  26.1 °C 56.5 °F /  13.6 °C 30in /  1014.7hPa Oeste 6.5mph /  10.5km/h 12mph /  19.3km/h 46% 0in /  0.0mm
18:49 78.8 °F /  26 °C 56.3 °F /  13.5 °C 30in /  1014.7hPa OSO 6.4mph /  10.3km/h 10mph /  16.1km/h 46% 0in /  0.0mm
18:54 78.6 °F /  25.9 °C 56.1 °F /  13.4 °C 30in /  1014.7hPa Oeste 5.1mph /  8.2km/h 9mph /  14.5km/h 46% 0in /  0.0mm
18:59 78.4 °F /  25.8 °C 56.5 °F /  13.6 °C 30in /  1014.7hPa Oeste 4.7mph /  7.6km/h 9.7mph /  15.6km/h 46.8% 0in /  0.0mm
19:04 78.4 °F /  25.8 °C 56.5 °F /  13.6 °C 30in /  1014.7hPa Oeste 5.1mph /  8.2km/h 10mph /  16.1km/h 47% 0in /  0.0mm
19:09 78.4 °F /  25.8 °C 56.5 °F /  13.6 °C 30in /  1014.7hPa Oeste 5.2mph /  8.4km/h 9.2mph /  14.8km/h 47% 0in /  0.0mm
19:14 78.3 °F /  25.7 °C 57 °F /  13.9 °C 30in /  1014.7hPa SO 5.2mph /  8.4km/h 9.2mph /  14.8km/h 48% 0in /  0.0mm
19:19 77.7 °F /  25.4 °C 58.1 °F /  14.5 °C 30in /  1014.7hPa Sur 5.2mph /  8.4km/h 9.2mph /  14.8km/h 50.8% 0in /  0.0mm
19:24 77.4 °F /  25.2 °C 58.6 °F /  14.8 °C 30in /  1014.8hPa SO 5.3mph /  8.6km/h 9.2mph /  14.8km/h 52.6% 0in /  0.0mm
19:29 77 °F /  25 °C 58.8 °F /  14.9 °C 30in /  1014.8hPa SO 5.4mph /  8.7km/h 9mph /  14.5km/h 53.4% 0in /  0.0mm
19:34 76.8 °F /  24.9 °C 58.5 °F /  14.7 °C 30in /  1014.8hPa SO 4.5mph /  7.3km/h 9.2mph /  14.8km/h 53.3% 0in /  0.0mm
19:39 76.8 °F /  24.9 °C 58.5 °F /  14.7 °C 30in /  1014.8hPa OSO 4.3mph /  6.9km/h 9mph /  14.5km/h 53.2% 0in /  0.0mm
19:44 76.6 °F /  24.8 °C 58.6 °F /  14.8 °C 30in /  1014.7hPa SSO 4.1mph /  6.6km/h 7.4mph /  11.9km/h 53.7% 0in /  0.0mm
19:49 76.5 °F /  24.7 °C 59.4 °F /  15.2 °C 30in /  1014.7hPa Sur 4mph /  6.5km/h 9.2mph /  14.8km/h 55.3% 0in /  0.0mm
19:54 76.3 °F /  24.6 °C 59.9 °F /  15.5 °C 30in /  1014.7hPa SSO 5.1mph /  8.2km/h 9mph /  14.5km/h 56.8% 0in /  0.0mm
19:59 75.9 °F /  24.4 °C 59.7 °F /  15.4 °C 30in /  1014.4hPa SSO 5.4mph /  8.7km/h 9.7mph /  15.6km/h 57% 0in /  0.0mm
20:04 75.7 °F /  24.3 °C 59.4 °F /  15.2 °C 30in /  1014.4hPa SO 4.8mph /  7.8km/h 10mph /  16.1km/h 57% 0in /  0.0mm
20:09 75.7 °F /  24.3 °C 59.4 °F /  15.2 °C 30in /  1014.4hPa SO 4.7mph /  7.6km/h 6.4mph /  10.3km/h 57% 0in /  0.0mm
20:14 75.6 °F /  24.2 °C 59.4 °F /  15.2 °C 30in /  1014.4hPa SO 4.2mph /  6.7km/h 8.1mph /  13km/h 57% 0in /  0.0mm
20:19 75.6 °F /  24.2 °C 59.2 °F /  15.1 °C 30in /  1014.4hPa SO 4mph /  6.5km/h 8mph /  12.9km/h 56.6% 0in /  0.0mm
20:24 75.6 °F /  24.2 °C 58.8 °F /  14.9 °C 30in /  1014.4hPa SO 4.5mph /  7.3km/h 8.1mph /  13km/h 56% 0in /  0.0mm
20:29 75.6 °F /  24.2 °C 58.8 °F /  14.9 °C 30in /  1014.4hPa SSO 4.7mph /  7.6km/h 9mph /  14.5km/h 56% 0in /  0.0mm
20:34 75.6 °F /  24.2 °C 58.3 °F /  14.6 °C 30in /  1014.4hPa SO 5.1mph /  8.2km/h 9mph /  14.5km/h 55% 0in /  0.0mm
20:39 75.6 °F /  24.2 °C 58.3 °F /  14.6 °C 30in /  1014.4hPa SO 5.2mph /  8.4km/h 7.4mph /  11.9km/h 55% 0in /  0.0mm
20:44 75.6 °F /  24.2 °C 58.6 °F /  14.8 °C 30in /  1014.3hPa SSO 4.3mph /  6.9km/h 7mph /  11.3km/h 55.8% 0in /  0.0mm
20:49 75.6 °F /  24.2 °C 58.8 °F /  14.9 °C 30in /  1014.3hPa SSO 4mph /  6.5km/h 6mph /  9.7km/h 56% 0in /  0.0mm
20:54 75.6 °F /  24.2 °C 59.2 °F /  15.1 °C 30in /  1014.3hPa SO 4mph /  6.5km/h 6.9mph /  11.1km/h 56.8% 0in /  0.0mm
20:59 75.6 °F /  24.2 °C 59.4 °F /  15.2 °C 30in /  1014.2hPa SSO 4mph /  6.5km/h 7mph /  11.3km/h 57.4% 0in /  0.0mm
21:04 75.4 °F /  24.1 °C 59.5 °F /  15.3 °C 30in /  1014.2hPa SO 3.3mph /  5.3km/h 5.2mph /  8.4km/h 58% 0in /  0.0mm
21:09 75.2 °F /  24 °C 59.9 °F /  15.5 °C 30in /  1014.2hPa SO 3.1mph /  5km/h 5.2mph /  8.4km/h 59% 0in /  0.0mm
21:14 74.8 °F /  23.8 °C 60.1 °F /  15.6 °C 30in /  1014.2hPa SO 3.1mph /  5km/h 6.2mph /  10km/h 59.8% 0in /  0.0mm
21:19 74.7 °F /  23.7 °C 60.3 °F /  15.7 °C 30in /  1014.2hPa SO 3.1mph /  5km/h 6mph /  9.7km/h 60.9% 0in /  0.0mm
21:24 74.5 °F /  23.6 °C 60.1 °F /  15.6 °C 30in /  1014.3hPa OSO 3.5mph /  5.6km/h 6mph /  9.7km/h 61.1% 0in /  0.0mm
21:29 73.9 °F /  23.3 °C 60.3 °F /  15.7 °C 30in /  1014.3hPa OSO 3.6mph /  5.8km/h 6mph /  9.7km/h 62.3% 0in /  0.0mm
21:34 73.8 °F /  23.2 °C 60.6 °F /  15.9 °C 30in /  1014.3hPa OSO 2.7mph /  4.3km/h 4mph /  6.4km/h 63.6% 0in /  0.0mm
21:39 73.4 °F /  23 °C 60.8 °F /  16 °C 30in /  1014.3hPa Oeste 2.4mph /  3.9km/h 4mph /  6.4km/h 64.8% 0in /  0.0mm
21:44 73.2 °F /  22.9 °C 61 °F /  16.1 °C 30in /  1014.2hPa Oeste 1.9mph /  3.1km/h 4mph /  6.4km/h 65.6% 0in /  0.0mm
21:49 73 °F /  22.8 °C 61 °F /  16.1 °C 30in /  1014.2hPa Sur 1.8mph /  2.9km/h 4.6mph /  7.4km/h 66% 0in /  0.0mm
21:54 72.9 °F /  22.7 °C 61 °F /  16.1 °C 30in /  1014.2hPa SSE 1.8mph /  2.9km/h 5mph /  8km/h 66.4% 0in /  0.0mm
21:59 72.7 °F /  22.6 °C 61 °F /  16.1 °C 30in /  1014.2hPa Sur 1.8mph /  2.9km/h 5.2mph /  8.4km/h 66.7% 0in /  0.0mm
22:04 72.5 °F /  22.5 °C 61.2 °F /  16.2 °C 30in /  1014.2hPa ONO 2.7mph /  4.4km/h 6.2mph /  10km/h 67.4% 0in /  0.0mm
22:09 72.1 °F /  22.3 °C 61.3 °F /  16.3 °C 30in /  1014.2hPa Oeste 2.9mph /  4.7km/h 6mph /  9.7km/h 68.7% 0in /  0.0mm
22:14 72 °F /  22.2 °C 61.3 °F /  16.3 °C 30in /  1014.2hPa ONO 3.7mph /  6km/h 6.2mph /  10km/h 69.4% 0in /  0.0mm
22:19 71.6 °F /  22 °C 61.2 °F /  16.2 °C 30in /  1014.2hPa ONO 4mph /  6.5km/h 6.9mph /  11.1km/h 70% 0in /  0.0mm
22:24 71.4 °F /  21.9 °C 61.3 °F /  16.3 °C 30in /  1014.3hPa Oeste 4mph /  6.5km/h 7mph /  11.3km/h 70.7% 0in /  0.0mm
22:29 71.2 °F /  21.8 °C 61.3 °F /  16.3 °C 30in /  1014.3hPa OSO 4mph /  6.5km/h 7mph /  11.3km/h 71% 0in /  0.0mm
22:34 71.1 °F /  21.7 °C 61.2 °F /  16.2 °C 30in /  1014.3hPa OSO 3.3mph /  5.3km/h 6mph /  9.7km/h 71% 0in /  0.0mm
22:39 70.9 °F /  21.6 °C 61 °F /  16.1 °C 30in /  1014.3hPa Oeste 3.1mph /  5km/h 6mph /  9.7km/h 71% 0in /  0.0mm
22:44 70.9 °F /  21.6 °C 61.3 °F /  16.3 °C 30in /  1014.2hPa ONO 2.9mph /  4.7km/h 8.1mph /  13km/h 71.9% 0in /  0.0mm
22:49 70.7 °F /  21.5 °C 61.2 °F /  16.2 °C 30in /  1014.2hPa Oeste 2.9mph /  4.7km/h 8mph /  12.9km/h 72% 0in /  0.0mm
22:54 70.7 °F /  21.5 °C 61 °F /  16.1 °C 30in /  1014.3hPa OSO 3.7mph /  6km/h 6mph /  9.7km/h 71.8% 0in /  0.0mm
22:59 70.7 °F /  21.5 °C 60.8 °F /  16 °C 30in /  1014.3hPa OSO 4mph /  6.5km/h 5mph /  8km/h 71.1% 0in /  0.0mm
23:04 70.5 °F /  21.4 °C 60.6 °F /  15.9 °C 30in /  1014.3hPa SSO 3.1mph /  5km/h 5mph /  8km/h 71% 0in /  0.0mm
23:09 70.7 °F /  21.5 °C 60.6 °F /  15.9 °C 30in /  1014.3hPa Sur 2.9mph /  4.7km/h 5.8mph /  9.3km/h 70.7% 0in /  0.0mm
23:14 71.1 °F /  21.7 °C 60.4 °F /  15.8 °C 30in /  1014.2hPa SSE 3.4mph /  5.5km/h 6.9mph /  11.1km/h 69.3% 0in /  0.0mm
23:19 71.2 °F /  21.8 °C 60.3 °F /  15.7 °C 30in /  1014.2hPa SSE 3.6mph /  5.8km/h 7mph /  11.3km/h 68.3% 0in /  0.0mm
23:24 71.4 °F /  21.9 °C 60.3 °F /  15.7 °C 30in /  1014.2hPa SSE 4.8mph /  7.8km/h 7mph /  11.3km/h 68% 0in /  0.0mm
23:29 71.2 °F /  21.8 °C 60.3 °F /  15.7 °C 29.9in /  1014.0hPa Sur 5.2mph /  8.4km/h 6mph /  9.7km/h 68% 0in /  0.0mm
23:34 71.2 °F /  21.8 °C 59.9 °F /  15.5 °C 29.9in /  1014.0hPa SSO 4.3mph /  6.9km/h 6mph /  9.7km/h 67.3% 0in /  0.0mm
23:39 71.2 °F /  21.8 °C 59.7 °F /  15.4 °C 29.9in /  1014.0hPa SO 4mph /  6.5km/h 5.4mph /  8.7km/h 67% 0in /  0.0mm
23:44 71.2 °F /  21.8 °C 59.7 °F /  15.4 °C 29.9in /  1014.0hPa SSO 3.3mph /  5.3km/h 7.4mph /  11.9km/h 66.9% 0in /  0.0mm
23:49 71.2 °F /  21.8 °C 59.4 °F /  15.2 °C 29.9in /  1014.0hPa SSO 3.1mph /  5km/h 7mph /  11.3km/h 66.1% 0in /  0.0mm
23:54 71.2 °F /  21.8 °C 59.2 °F /  15.1 °C 29.9in /  1014.0hPa SSO 4mph /  6.5km/h 6mph /  9.7km/h 66% 0in /  0.0mm
23:59 71.1 °F /  21.7 °C 59.2 °F /  15.1 °C 29.9in /  1013.7hPa SO 4.3mph /  6.9km/h 6.9mph /  11.1km/h 66% 0in /  0.0mm
Murcia-Puente Tocinos, España
Compliments of Weather Underground - 3 mb

La estación de MeteoMurcia.com, publica sus datos en los siguientes proyectos:

Weather Underground PWS IMURCIAP2 Meteoclimatic www.awekas.at

W3Counter
Web Analytics